Martin Challenger — WDB2346 — position and weather

sailwx.info

Track history (hours):
 
Tides and Currents Weather Stations Pressure Air Temp Water Temp Dewpoint Dewpoint Depression Visibility Wind Speed Wind Dir Waves Ship Positions

Martin Challenger

Owner: MARTIN OPERATING PARTNERSHIP LP, VIDOR, TX. More information available from US FCC via Universal Licensing System and Coast Guard Vessel Documentation Center.

Last reported at 2015-Mar-27 16:33 UTC. Time now 2015-Mar-27 17:21 UTC.
Position N 29°44' W 095°03'.

Length 20 m; draft 2.9 m.

MMSI: 366874920.

Date/timePositionNaut miles runAvg speedWind from/ knotsBaromVisibWave heightAir tempDewpointWater temp
2015-Mar-27 16:33N 29°44' W 095°03'0 0.0
2015-Mar-27 15:33N 29°44' W 095°03'0 0.0
2015-Mar-27 14:33N 29°44' W 095°03'0 0.0
2015-Mar-27 13:33N 29°44' W 095°03'0 0.0
2015-Mar-27 12:33N 29°44' W 095°03'0 0.0
2015-Mar-27 11:33N 29°44' W 095°03'0 0.0
2015-Mar-27 10:33N 29°44' W 095°03'0 0.0
2015-Mar-27 09:33N 29°44' W 095°03'0 0.0
2015-Mar-27 08:33N 29°44' W 095°03'0 0.0
2015-Mar-27 07:33N 29°44' W 095°03'0 0.0
2015-Mar-27 06:33N 29°44' W 095°03'0 0.0
2015-Mar-27 05:33N 29°44' W 095°03'2 2.0
2015-Mar-27 04:33N 29°46' W 095°04'2 1.8
2015-Mar-27 03:27N 29°47' W 095°04'0 0.1
2015-Mar-27 01:30N 29°47' W 095°04'2 1.0
2015-Mar-26 23:21N 29°46' W 095°06'0 0.0
2015-Mar-26 18:19N 29°46' W 095°06'0 0.0
2015-Mar-26 17:24N 29°46' W 095°06'0 0.0
2015-Mar-26 16:31N 29°46' W 095°06'0 0.0
2015-Mar-26 15:03N 29°46' W 095°06'0 0.0
2015-Mar-26 14:33N 29°46' W 095°06'0 0.0
2015-Mar-26 13:29N 29°46' W 095°06'0 0.0
2015-Mar-26 12:32N 29°46' W 095°06'0 0.0
2015-Mar-26 11:30N 29°46' W 095°06'0 0.0
2015-Mar-26 10:33N 29°46' W 095°06'0 0.0
2015-Mar-26 09:32N 29°46' W 095°06'0 0.0
2015-Mar-26 08:21N 29°46' W 095°06'0 0.0
2015-Mar-26 07:28N 29°46' W 095°06'0 0.0
2015-Mar-26 06:16N 29°46' W 095°06'0 0.0
2015-Mar-26 05:30N 29°46' W 095°06'0 0.0
2015-Mar-26 04:06N 29°46' W 095°06'0 0.0
2015-Mar-26 02:30N 29°46' W 095°06'0 0.0
2015-Mar-26 01:29N 29°46' W 095°06'0 0.0
2015-Mar-26 00:11N 29°46' W 095°06'0 0.0
2015-Mar-25 23:31N 29°46' W 095°06'1 0.3
2015-Mar-25 21:32N 29°46' W 095°05'2 1.3
2015-Mar-25 20:12N 29°47' W 095°04'0 0.0
2015-Mar-25 19:27N 29°47' W 095°04'0 0.0
2015-Mar-25 18:24N 29°47' W 095°04'0 0.0
2015-Mar-25 17:33N 29°47' W 095°04'0 0.0
2015-Mar-25 16:33N 29°47' W 095°04'0 0.0
2015-Mar-25 15:32N 29°47' W 095°04'0 0.1
2015-Mar-25 14:33N 29°47' W 095°04'1 1.0
2015-Mar-25 13:33N 29°46' W 095°05'0 0.0
2015-Mar-25 10:08N 29°46' W 095°05'0 0.0
2015-Mar-25 09:22N 29°46' W 095°05'0 0.5
2015-Mar-25 08:33N 29°46' W 095°05'3 3.3
2015-Mar-25 07:33N 29°44' W 095°02'4 3.8
2015-Mar-25 06:32N 29°41' W 094°59'4 4.3
2015-Mar-25 05:33N 29°37' W 094°57'4 4.4
2015-Mar-25 04:33N 29°33' W 094°55'  
2015-Mar-21 15:32N 29°29' W 094°51'6 6.1
2015-Mar-21 14:33N 29°34' W 094°55'6 6.1
2015-Mar-21 13:33N 29°39' W 094°58'5 4.8
2015-Mar-21 12:33N 29°43' W 095°01'2 1.4
2015-Mar-21 11:16N 29°44' W 095°03'0 0.0
2015-Mar-21 10:33N 29°44' W 095°03'0 0.0
2015-Mar-21 09:32N 29°44' W 095°03'0 0.0
2015-Mar-21 08:26N 29°44' W 095°03'0 0.0
2015-Mar-21 07:32N 29°44' W 095°03'0 0.0
2015-Mar-21 06:33N 29°44' W 095°03'0 0.0
2015-Mar-21 04:32N 29°44' W 095°03'0 0.0
2015-Mar-21 03:32N 29°44' W 095°03'0 0.0
2015-Mar-21 02:32N 29°44' W 095°03'6 5.7
2015-Mar-21 01:33N 29°40' W 094°59'8 7.6
2015-Mar-21 00:33N 29°33' W 094°55'  
Track history (hours):
 
Tides and Currents Weather Stations Pressure Air Temp Water Temp Dewpoint Dewpoint Depression Visibility Wind Speed Wind Dir Waves Ship Positions

Martin Challenger

Owner: MARTIN OPERATING PARTNERSHIP LP, VIDOR, TX. More information available from US FCC via Universal Licensing System and Coast Guard Vessel Documentation Center.

Last reported at 2015-Mar-27 16:33 UTC. Time now 2015-Mar-27 17:21 UTC.
Position N 29°44' W 095°03'.

Length 20 m; draft 2.9 m.

MMSI: 366874920.

Date/timePositionNaut miles runAvg speedWind from/ knotsBaromVisibWave heightAir tempDewpointWater temp
2015-Mar-27 16:33N 29°44' W 095°03'0 0.0
2015-Mar-27 15:33N 29°44' W 095°03'0 0.0
2015-Mar-27 14:33N 29°44' W 095°03'0 0.0
2015-Mar-27 13:33N 29°44' W 095°03'0 0.0
2015-Mar-27 12:33N 29°44' W 095°03'0 0.0
2015-Mar-27 11:33N 29°44' W 095°03'0 0.0
2015-Mar-27 10:33N 29°44' W 095°03'0 0.0
2015-Mar-27 09:33N 29°44' W 095°03'0 0.0
2015-Mar-27 08:33N 29°44' W 095°03'0 0.0
2015-Mar-27 07:33N 29°44' W 095°03'0 0.0
2015-Mar-27 06:33N 29°44' W 095°03'0 0.0
2015-Mar-27 05:33N 29°44' W 095°03'2 2.0
2015-Mar-27 04:33N 29°46' W 095°04'2 1.8
2015-Mar-27 03:27N 29°47' W 095°04'0 0.1
2015-Mar-27 01:30N 29°47' W 095°04'2 1.0
2015-Mar-26 23:21N 29°46' W 095°06'0 0.0
2015-Mar-26 18:19N 29°46' W 095°06'0 0.0
2015-Mar-26 17:24N 29°46' W 095°06'0 0.0
2015-Mar-26 16:31N 29°46' W 095°06'0 0.0
2015-Mar-26 15:03N 29°46' W 095°06'0 0.0
2015-Mar-26 14:33N 29°46' W 095°06'0 0.0
2015-Mar-26 13:29N 29°46' W 095°06'0 0.0
2015-Mar-26 12:32N 29°46' W 095°06'0 0.0
2015-Mar-26 11:30N 29°46' W 095°06'0 0.0
2015-Mar-26 10:33N 29°46' W 095°06'0 0.0
2015-Mar-26 09:32N 29°46' W 095°06'0 0.0
2015-Mar-26 08:21N 29°46' W 095°06'0 0.0
2015-Mar-26 07:28N 29°46' W 095°06'0 0.0
2015-Mar-26 06:16N 29°46' W 095°06'0 0.0
2015-Mar-26 05:30N 29°46' W 095°06'0 0.0
2015-Mar-26 04:06N 29°46' W 095°06'0 0.0
2015-Mar-26 02:30N 29°46' W 095°06'0 0.0
2015-Mar-26 01:29N 29°46' W 095°06'0 0.0
2015-Mar-26 00:11N 29°46' W 095°06'0 0.0
2015-Mar-25 23:31N 29°46' W 095°06'1 0.3
2015-Mar-25 21:32N 29°46' W 095°05'2 1.3
2015-Mar-25 20:12N 29°47' W 095°04'0 0.0
2015-Mar-25 19:27N 29°47' W 095°04'0 0.0
2015-Mar-25 18:24N 29°47' W 095°04'0 0.0
2015-Mar-25 17:33N 29°47' W 095°04'0 0.0
2015-Mar-25 16:33N 29°47' W 095°04'0 0.0
2015-Mar-25 15:32N 29°47' W 095°04'0 0.1
2015-Mar-25 14:33N 29°47' W 095°04'1 1.0
2015-Mar-25 13:33N 29°46' W 095°05'0 0.0
2015-Mar-25 10:08N 29°46' W 095°05'0 0.0
2015-Mar-25 09:22N 29°46' W 095°05'0 0.5
2015-Mar-25 08:33N 29°46' W 095°05'3 3.3
2015-Mar-25 07:33N 29°44' W 095°02'4 3.8
2015-Mar-25 06:32N 29°41' W 094°59'4 4.3
2015-Mar-25 05:33N 29°37' W 094°57'4 4.4
2015-Mar-25 04:33N 29°33' W 094°55'  
2015-Mar-21 15:32N 29°29' W 094°51'6 6.1
2015-Mar-21 14:33N 29°34' W 094°55'6 6.1
2015-Mar-21 13:33N 29°39' W 094°58'5 4.8
2015-Mar-21 12:33N 29°43' W 095°01'2 1.4
2015-Mar-21 11:16N 29°44' W 095°03'0 0.0
2015-Mar-21 10:33N 29°44' W 095°03'0 0.0
2015-Mar-21 09:32N 29°44' W 095°03'0 0.0
2015-Mar-21 08:26N 29°44' W 095°03'0 0.0
2015-Mar-21 07:32N 29°44' W 095°03'0 0.0
2015-Mar-21 06:33N 29°44' W 095°03'0 0.0
2015-Mar-21 04:32N 29°44' W 095°03'0 0.0
2015-Mar-21 03:32N 29°44' W 095°03'0 0.0
2015-Mar-21 02:32N 29°44' W 095°03'6 5.7
2015-Mar-21 01:33N 29°40' W 094°59'8 7.6
2015-Mar-21 00:33N 29°33' W 094°55'  

Dump ship's entire track history